sensor_id;sensor_type;location;lat;lon;timestamp;P1;durP1;ratioP1;P2;durP2;ratioP2
54125;SDS011;40360;52.992;6.796;2023-04-03T00:01:06;3.00;;;1.27;;
54125;SDS011;40360;52.992;6.796;2023-04-03T00:03:32;2.65;;;0.90;;
54125;SDS011;40360;52.992;6.796;2023-04-03T00:05:58;3.17;;;1.30;;
54125;SDS011;40360;52.992;6.796;2023-04-03T00:08:25;2.70;;;0.98;;
54125;SDS011;40360;52.992;6.796;2023-04-03T00:10:50;2.20;;;1.10;;
54125;SDS011;40360;52.992;6.796;2023-04-03T00:13:16;1.52;;;1.00;;
54125;SDS011;40360;52.992;6.796;2023-04-03T00:15:42;5.75;;;1.10;;
54125;SDS011;40360;52.992;6.796;2023-04-03T00:18:08;3.55;;;1.33;;
54125;SDS011;40360;52.992;6.796;2023-04-03T00:20:34;2.67;;;1.10;;
54125;SDS011;40360;52.992;6.796;2023-04-03T00:23:00;2.63;;;1.05;;
54125;SDS011;40360;52.992;6.796;2023-04-03T00:25:26;3.10;;;1.35;;
54125;SDS011;40360;52.992;6.796;2023-04-03T00:27:52;2.85;;;1.23;;
54125;SDS011;40360;52.992;6.796;2023-04-03T00:30:18;1.88;;;1.00;;
54125;SDS011;40360;52.992;6.796;2023-04-03T00:32:47;2.65;;;1.00;;
54125;SDS011;40360;52.992;6.796;2023-04-03T00:35:14;1.67;;;0.82;;
54125;SDS011;40360;52.992;6.796;2023-04-03T00:37:41;2.88;;;1.25;;
54125;SDS011;40360;52.992;6.796;2023-04-03T00:40:07;3.30;;;1.05;;
54125;SDS011;40360;52.992;6.796;2023-04-03T00:42:35;2.53;;;1.08;;
54125;SDS011;40360;52.992;6.796;2023-04-03T00:47:27;2.38;;;1.15;;
54125;SDS011;40360;52.992;6.796;2023-04-03T00:49:55;3.67;;;1.25;;
54125;SDS011;40360;52.992;6.796;2023-04-03T00:52:22;1.90;;;1.00;;
54125;SDS011;40360;52.992;6.796;2023-04-03T00:54:53;2.08;;;1.05;;
54125;SDS011;40360;52.992;6.796;2023-04-03T00:57:21;1.55;;;1.00;;
54125;SDS011;40360;52.992;6.796;2023-04-03T00:59:51;3.60;;;0.98;;
54125;SDS011;40360;52.992;6.796;2023-04-03T01:02:22;2.58;;;1.40;;
54125;SDS011;40360;52.992;6.796;2023-04-03T01:04:48;4.18;;;1.25;;
54125;SDS011;40360;52.992;6.796;2023-04-03T01:07:18;4.07;;;0.90;;
54125;SDS011;40360;52.992;6.796;2023-04-03T01:09:53;6.60;;;1.50;;
54125;SDS011;40360;52.992;6.796;2023-04-03T01:12:30;3.03;;;1.40;;
54125;SDS011;40360;52.992;6.796;2023-04-03T01:15:04;6.97;;;1.85;;
54125;SDS011;40360;52.992;6.796;2023-04-03T01:22:59;3.28;;;1.42;;
54125;SDS011;40360;52.992;6.796;2023-04-03T01:25:35;3.22;;;1.30;;
54125;SDS011;40360;52.992;6.796;2023-04-03T01:28:08;3.05;;;1.33;;
54125;SDS011;40360;52.992;6.796;2023-04-03T01:30:43;3.28;;;1.17;;
54125;SDS011;40360;52.992;6.796;2023-04-03T01:33:16;3.17;;;1.70;;
54125;SDS011;40360;52.992;6.796;2023-04-03T01:35:42;3.92;;;1.65;;
54125;SDS011;40360;52.992;6.796;2023-04-03T01:38:08;7.00;;;1.52;;
54125;SDS011;40360;52.992;6.796;2023-04-03T01:40:33;3.25;;;1.50;;
54125;SDS011;40360;52.992;6.796;2023-04-03T01:42:59;4.47;;;1.42;;
54125;SDS011;40360;52.992;6.796;2023-04-03T01:45:25;2.58;;;1.63;;
54125;SDS011;40360;52.992;6.796;2023-04-03T01:47:50;3.30;;;1.52;;
54125;SDS011;40360;52.992;6.796;2023-04-03T01:50:16;4.18;;;1.50;;
54125;SDS011;40360;52.992;6.796;2023-04-03T01:52:41;4.20;;;1.67;;
54125;SDS011;40360;52.992;6.796;2023-04-03T01:55:07;4.30;;;1.65;;
54125;SDS011;40360;52.992;6.796;2023-04-03T01:57:33;5.45;;;1.95;;
54125;SDS011;40360;52.992;6.796;2023-04-03T01:59:59;5.38;;;1.90;;
54125;SDS011;40360;52.992;6.796;2023-04-03T02:02:24;3.47;;;1.40;;
54125;SDS011;40360;52.992;6.796;2023-04-03T02:04:50;4.05;;;1.52;;
54125;SDS011;40360;52.992;6.796;2023-04-03T02:07:16;4.50;;;1.85;;
54125;SDS011;40360;52.992;6.796;2023-04-03T02:09:41;3.63;;;1.67;;
54125;SDS011;40360;52.992;6.796;2023-04-03T02:12:07;5.70;;;2.10;;
54125;SDS011;40360;52.992;6.796;2023-04-03T02:14:32;6.68;;;1.90;;
54125;SDS011;40360;52.992;6.796;2023-04-03T02:16:59;4.85;;;2.00;;
54125;SDS011;40360;52.992;6.796;2023-04-03T02:19:26;3.65;;;1.60;;
54125;SDS011;40360;52.992;6.796;2023-04-03T02:21:51;4.03;;;2.15;;
54125;SDS011;40360;52.992;6.796;2023-04-03T02:24:17;7.05;;;2.10;;
54125;SDS011;40360;52.992;6.796;2023-04-03T02:26:42;3.17;;;1.65;;
54125;SDS011;40360;52.992;6.796;2023-04-03T02:29:08;4.13;;;2.30;;
54125;SDS011;40360;52.992;6.796;2023-04-03T02:31:34;3.50;;;1.50;;
54125;SDS011;40360;52.992;6.796;2023-04-03T02:33:59;4.90;;;1.60;;
54125;SDS011;40360;52.992;6.796;2023-04-03T02:36:25;5.53;;;2.00;;
54125;SDS011;40360;52.992;6.796;2023-04-03T02:38:51;8.90;;;1.92;;
54125;SDS011;40360;52.992;6.796;2023-04-03T02:41:16;3.38;;;1.75;;
54125;SDS011;40360;52.992;6.796;2023-04-03T02:43:42;4.30;;;1.85;;
54125;SDS011;40360;52.992;6.796;2023-04-03T02:46:07;3.38;;;1.63;;
54125;SDS011;40360;52.992;6.796;2023-04-03T02:48:33;6.30;;;1.80;;
54125;SDS011;40360;52.992;6.796;2023-04-03T02:51:00;3.95;;;1.80;;
54125;SDS011;40360;52.992;6.796;2023-04-03T02:53:26;5.05;;;1.73;;
54125;SDS011;40360;52.992;6.796;2023-04-03T02:55:51;6.20;;;2.65;;
54125;SDS011;40360;52.992;6.796;2023-04-03T02:58:17;3.45;;;1.85;;
54125;SDS011;40360;52.992;6.796;2023-04-03T03:00:42;5.38;;;2.13;;
54125;SDS011;40360;52.992;6.796;2023-04-03T03:03:11;6.72;;;2.08;;
54125;SDS011;40360;52.992;6.796;2023-04-03T03:05:39;6.07;;;2.78;;
54125;SDS011;40360;52.992;6.796;2023-04-03T03:08:04;7.35;;;2.28;;
54125;SDS011;40360;52.992;6.796;2023-04-03T03:10:30;6.72;;;2.55;;
54125;SDS011;40360;52.992;6.796;2023-04-03T03:12:56;6.13;;;1.88;;
54125;SDS011;40360;52.992;6.796;2023-04-03T03:15:21;3.42;;;1.90;;
54125;SDS011;40360;52.992;6.796;2023-04-03T03:17:47;5.93;;;1.80;;
54125;SDS011;40360;52.992;6.796;2023-04-03T03:20:12;5.85;;;2.03;;
54125;SDS011;40360;52.992;6.796;2023-04-03T03:22:41;5.28;;;2.35;;
54125;SDS011;40360;52.992;6.796;2023-04-03T03:25:07;4.88;;;1.58;;
54125;SDS011;40360;52.992;6.796;2023-04-03T03:27:33;7.78;;;2.33;;
54125;SDS011;40360;52.992;6.796;2023-04-03T03:29:58;3.88;;;2.05;;
54125;SDS011;40360;52.992;6.796;2023-04-03T03:32:24;3.80;;;2.10;;
54125;SDS011;40360;52.992;6.796;2023-04-03T03:34:49;5.90;;;2.20;;
54125;SDS011;40360;52.992;6.796;2023-04-03T03:37:15;3.70;;;1.80;;
54125;SDS011;40360;52.992;6.796;2023-04-03T03:39:41;7.07;;;2.75;;
54125;SDS011;40360;52.992;6.796;2023-04-03T03:42:06;4.25;;;2.00;;
54125;SDS011;40360;52.992;6.796;2023-04-03T03:44:32;4.80;;;2.17;;
54125;SDS011;40360;52.992;6.796;2023-04-03T03:46:57;5.15;;;1.98;;
54125;SDS011;40360;52.992;6.796;2023-04-03T03:49:23;5.18;;;1.90;;
54125;SDS011;40360;52.992;6.796;2023-04-03T03:51:48;8.85;;;2.35;;
54125;SDS011;40360;52.992;6.796;2023-04-03T03:54:15;4.13;;;1.90;;
54125;SDS011;40360;52.992;6.796;2023-04-03T03:56:41;5.22;;;1.90;;
54125;SDS011;40360;52.992;6.796;2023-04-03T03:59:07;8.98;;;2.25;;
54125;SDS011;40360;52.992;6.796;2023-04-03T04:01:32;5.72;;;2.55;;
54125;SDS011;40360;52.992;6.796;2023-04-03T04:03:58;4.63;;;2.03;;
54125;SDS011;40360;52.992;6.796;2023-04-03T04:06:24;2.67;;;1.70;;
54125;SDS011;40360;52.992;6.796;2023-04-03T04:08:50;6.32;;;2.53;;
54125;SDS011;40360;52.992;6.796;2023-04-03T04:11:15;2.33;;;1.60;;
54125;SDS011;40360;52.992;6.796;2023-04-03T04:13:41;7.13;;;2.40;;
54125;SDS011;40360;52.992;6.796;2023-04-03T04:16:07;10.77;;;2.85;;
54125;SDS011;40360;52.992;6.796;2023-04-03T04:18:32;5.38;;;2.63;;
54125;SDS011;40360;52.992;6.796;2023-04-03T04:20:59;2.88;;;2.17;;
54125;SDS011;40360;52.992;6.796;2023-04-03T04:23:24;7.15;;;2.53;;
54125;SDS011;40360;52.992;6.796;2023-04-03T04:25:50;6.55;;;2.58;;
54125;SDS011;40360;52.992;6.796;2023-04-03T04:28:16;5.75;;;2.53;;
54125;SDS011;40360;52.992;6.796;2023-04-03T04:30:42;10.38;;;2.40;;
54125;SDS011;40360;52.992;6.796;2023-04-03T04:33:08;7.55;;;2.80;;
54125;SDS011;40360;52.992;6.796;2023-04-03T04:35:34;7.53;;;3.05;;
54125;SDS011;40360;52.992;6.796;2023-04-03T04:37:59;5.93;;;2.33;;
54125;SDS011;40360;52.992;6.796;2023-04-03T04:40:25;8.60;;;2.83;;
54125;SDS011;40360;52.992;6.796;2023-04-03T04:42:51;7.20;;;2.75;;
54125;SDS011;40360;52.992;6.796;2023-04-03T04:45:17;4.90;;;2.22;;
54125;SDS011;40360;52.992;6.796;2023-04-03T04:47:43;7.15;;;2.53;;
54125;SDS011;40360;52.992;6.796;2023-04-03T04:50:09;4.15;;;2.65;;
54125;SDS011;40360;52.992;6.796;2023-04-03T04:52:35;6.90;;;2.45;;
54125;SDS011;40360;52.992;6.796;2023-04-03T04:55:00;5.63;;;2.60;;
54125;SDS011;40360;52.992;6.796;2023-04-03T04:57:26;5.47;;;2.70;;
54125;SDS011;40360;52.992;6.796;2023-04-03T04:59:52;5.35;;;2.90;;
54125;SDS011;40360;52.992;6.796;2023-04-03T05:02:17;4.72;;;2.20;;
54125;SDS011;40360;52.992;6.796;2023-04-03T05:04:43;5.50;;;2.58;;
54125;SDS011;40360;52.992;6.796;2023-04-03T05:07:09;6.45;;;2.53;;
54125;SDS011;40360;52.992;6.796;2023-04-03T05:09:34;9.02;;;2.67;;
54125;SDS011;40360;52.992;6.796;2023-04-03T05:12:00;4.90;;;2.63;;
54125;SDS011;40360;52.992;6.796;2023-04-03T05:14:27;8.50;;;2.70;;
54125;SDS011;40360;52.992;6.796;2023-04-03T05:16:53;8.45;;;3.20;;
54125;SDS011;40360;52.992;6.796;2023-04-03T05:19:19;7.32;;;2.65;;
54125;SDS011;40360;52.992;6.796;2023-04-03T05:21:45;8.80;;;3.28;;
54125;SDS011;40360;52.992;6.796;2023-04-03T05:24:12;6.28;;;2.33;;
54125;SDS011;40360;52.992;6.796;2023-04-03T05:26:38;6.55;;;2.60;;
54125;SDS011;40360;52.992;6.796;2023-04-03T05:29:04;8.55;;;3.28;;
54125;SDS011;40360;52.992;6.796;2023-04-03T05:31:30;9.88;;;2.92;;
54125;SDS011;40360;52.992;6.796;2023-04-03T05:33:57;8.88;;;3.33;;
54125;SDS011;40360;52.992;6.796;2023-04-03T05:36:23;7.70;;;3.10;;
54125;SDS011;40360;52.992;6.796;2023-04-03T05:38:48;5.93;;;2.63;;
54125;SDS011;40360;52.992;6.796;2023-04-03T05:41:14;12.40;;;4.30;;
54125;SDS011;40360;52.992;6.796;2023-04-03T05:43:41;12.55;;;4.05;;
54125;SDS011;40360;52.992;6.796;2023-04-03T06:00:46;9.13;;;5.50;;
54125;SDS011;40360;52.992;6.796;2023-04-03T06:03:12;13.02;;;5.00;;
54125;SDS011;40360;52.992;6.796;2023-04-03T06:05:38;9.65;;;5.53;;
54125;SDS011;40360;52.992;6.796;2023-04-03T06:08:03;8.90;;;4.82;;
54125;SDS011;40360;52.992;6.796;2023-04-03T06:10:29;9.43;;;3.65;;
54125;SDS011;40360;52.992;6.796;2023-04-03T06:12:58;11.80;;;4.80;;
54125;SDS011;40360;52.992;6.796;2023-04-03T06:15:23;12.00;;;4.00;;
54125;SDS011;40360;52.992;6.796;2023-04-03T06:17:49;7.78;;;4.40;;
54125;SDS011;40360;52.992;6.796;2023-04-03T06:20:16;7.30;;;3.72;;
54125;SDS011;40360;52.992;6.796;2023-04-03T06:22:41;12.63;;;5.03;;
54125;SDS011;40360;52.992;6.796;2023-04-03T06:25:07;9.50;;;4.10;;
54125;SDS011;40360;52.992;6.796;2023-04-03T06:27:34;8.70;;;4.22;;
54125;SDS011;40360;52.992;6.796;2023-04-03T06:30:00;8.30;;;3.78;;
54125;SDS011;40360;52.992;6.796;2023-04-03T06:32:25;7.70;;;4.18;;
54125;SDS011;40360;52.992;6.796;2023-04-03T06:34:51;7.43;;;3.80;;
54125;SDS011;40360;52.992;6.796;2023-04-03T06:37:19;6.63;;;3.45;;
54125;SDS011;40360;52.992;6.796;2023-04-03T06:39:46;7.68;;;3.35;;
54125;SDS011;40360;52.992;6.796;2023-04-03T06:42:12;9.55;;;3.50;;
54125;SDS011;40360;52.992;6.796;2023-04-03T06:44:38;9.82;;;3.15;;
54125;SDS011;40360;52.992;6.796;2023-04-03T06:47:03;10.07;;;4.20;;
54125;SDS011;40360;52.992;6.796;2023-04-03T06:49:29;9.85;;;4.13;;
54125;SDS011;40360;52.992;6.796;2023-04-03T06:51:55;10.48;;;3.60;;
54125;SDS011;40360;52.992;6.796;2023-04-03T06:54:21;6.32;;;3.47;;
54125;SDS011;40360;52.992;6.796;2023-04-03T06:56:47;7.75;;;3.90;;
54125;SDS011;40360;52.992;6.796;2023-04-03T06:59:13;12.57;;;3.75;;
54125;SDS011;40360;52.992;6.796;2023-04-03T07:01:42;9.05;;;3.38;;
54125;SDS011;40360;52.992;6.796;2023-04-03T07:04:08;10.57;;;3.50;;
54125;SDS011;40360;52.992;6.796;2023-04-03T07:06:34;6.60;;;2.95;;
54125;SDS011;40360;52.992;6.796;2023-04-03T07:09:00;8.55;;;3.25;;
54125;SDS011;40360;52.992;6.796;2023-04-03T07:11:26;6.82;;;3.08;;
54125;SDS011;40360;52.992;6.796;2023-04-03T07:13:52;8.20;;;2.58;;
54125;SDS011;40360;52.992;6.796;2023-04-03T07:16:18;7.97;;;3.00;;
54125;SDS011;40360;52.992;6.796;2023-04-03T07:18:45;5.57;;;2.90;;
54125;SDS011;40360;52.992;6.796;2023-04-03T07:21:11;5.10;;;2.38;;
54125;SDS011;40360;52.992;6.796;2023-04-03T07:23:37;7.43;;;2.22;;
54125;SDS011;40360;52.992;6.796;2023-04-03T07:26:03;12.68;;;2.80;;
54125;SDS011;40360;52.992;6.796;2023-04-03T07:28:29;8.20;;;3.00;;
54125;SDS011;40360;52.992;6.796;2023-04-03T07:31:03;9.52;;;3.25;;
54125;SDS011;40360;52.992;6.796;2023-04-03T07:33:33;5.53;;;2.58;;
54125;SDS011;40360;52.992;6.796;2023-04-03T07:35:59;4.63;;;1.90;;
54125;SDS011;40360;52.992;6.796;2023-04-03T07:38:25;7.10;;;3.35;;
54125;SDS011;40360;52.992;6.796;2023-04-03T07:40:52;6.30;;;2.75;;
54125;SDS011;40360;52.992;6.796;2023-04-03T07:43:17;5.38;;;2.03;;
54125;SDS011;40360;52.992;6.796;2023-04-03T07:45:45;8.20;;;2.60;;
54125;SDS011;40360;52.992;6.796;2023-04-03T07:48:14;4.40;;;2.60;;
54125;SDS011;40360;52.992;6.796;2023-04-03T07:50:41;7.47;;;2.47;;
54125;SDS011;40360;52.992;6.796;2023-04-03T07:53:06;7.55;;;2.50;;
54125;SDS011;40360;52.992;6.796;2023-04-03T07:55:32;7.90;;;2.78;;
54125;SDS011;40360;52.992;6.796;2023-04-03T07:57:58;7.45;;;2.45;;
54125;SDS011;40360;52.992;6.796;2023-04-03T08:00:24;6.25;;;2.20;;
54125;SDS011;40360;52.992;6.796;2023-04-03T08:02:50;7.63;;;2.22;;
54125;SDS011;40360;52.992;6.796;2023-04-03T08:05:19;4.93;;;2.03;;
54125;SDS011;40360;52.992;6.796;2023-04-03T08:07:46;6.43;;;2.28;;
54125;SDS011;40360;52.992;6.796;2023-04-03T08:10:12;4.80;;;2.00;;
54125;SDS011;40360;52.992;6.796;2023-04-03T08:12:38;3.80;;;1.60;;
54125;SDS011;40360;52.992;6.796;2023-04-03T08:15:04;5.78;;;2.08;;
54125;SDS011;40360;52.992;6.796;2023-04-03T08:17:30;8.27;;;2.42;;
54125;SDS011;40360;52.992;6.796;2023-04-03T08:19:57;7.60;;;2.17;;
54125;SDS011;40360;52.992;6.796;2023-04-03T08:22:23;5.88;;;2.38;;
54125;SDS011;40360;52.992;6.796;2023-04-03T08:24:48;4.25;;;2.20;;
54125;SDS011;40360;52.992;6.796;2023-04-03T08:27:14;6.78;;;2.10;;
54125;SDS011;40360;52.992;6.796;2023-04-03T08:29:40;4.07;;;1.70;;
54125;SDS011;40360;52.992;6.796;2023-04-03T08:32:05;5.18;;;1.58;;
54125;SDS011;40360;52.992;6.796;2023-04-03T08:34:31;3.40;;;1.90;;
54125;SDS011;40360;52.992;6.796;2023-04-03T08:37:00;5.47;;;2.35;;
54125;SDS011;40360;52.992;6.796;2023-04-03T08:39:26;3.90;;;2.17;;
54125;SDS011;40360;52.992;6.796;2023-04-03T08:41:52;5.18;;;1.63;;
54125;SDS011;40360;52.992;6.796;2023-04-03T08:49:52;4.93;;;2.03;;
54125;SDS011;40360;52.992;6.796;2023-04-03T08:52:43;4.72;;;1.90;;
54125;SDS011;40360;52.992;6.796;2023-04-03T08:55:20;3.05;;;1.52;;
54125;SDS011;40360;52.992;6.796;2023-04-03T08:57:51;3.47;;;1.52;;
54125;SDS011;40360;52.992;6.796;2023-04-03T09:00:26;4.97;;;1.90;;
54125;SDS011;40360;52.992;6.796;2023-04-03T09:02:55;3.83;;;1.80;;
54125;SDS011;40360;52.992;6.796;2023-04-03T09:05:41;4.43;;;1.50;;
54125;SDS011;40360;52.992;6.796;2023-04-03T09:10:47;4.97;;;1.40;;
54125;SDS011;40360;52.992;6.796;2023-04-03T09:15:54;4.65;;;1.48;;
54125;SDS011;40360;52.992;6.796;2023-04-03T09:18:23;2.60;;;1.55;;
54125;SDS011;40360;52.992;6.796;2023-04-03T09:21:07;3.05;;;1.50;;
54125;SDS011;40360;52.992;6.796;2023-04-03T09:23:45;7.82;;;1.67;;
54125;SDS011;40360;52.992;6.796;2023-04-03T09:29:07;2.85;;;1.35;;
54125;SDS011;40360;52.992;6.796;2023-04-03T09:31:40;7.22;;;1.73;;
54125;SDS011;40360;52.992;6.796;2023-04-03T09:34:22;5.60;;;1.50;;
54125;SDS011;40360;52.992;6.796;2023-04-03T09:36:56;4.22;;;1.50;;
54125;SDS011;40360;52.992;6.796;2023-04-03T09:44:24;3.70;;;1.25;;
54125;SDS011;40360;52.992;6.796;2023-04-03T09:46:51;4.55;;;1.10;;
54125;SDS011;40360;52.992;6.796;2023-04-03T09:49:17;3.47;;;1.02;;
54125;SDS011;40360;52.992;6.796;2023-04-03T09:51:43;3.17;;;1.38;;
54125;SDS011;40360;52.992;6.796;2023-04-03T09:57:06;2.50;;;1.27;;
54125;SDS011;40360;52.992;6.796;2023-04-03T09:59:33;2.03;;;1.05;;
54125;SDS011;40360;52.992;6.796;2023-04-03T10:02:03;1.35;;;0.77;;
54125;SDS011;40360;52.992;6.796;2023-04-03T10:04:45;2.50;;;1.67;;
54125;SDS011;40360;52.992;6.796;2023-04-03T10:10:40;3.10;;;1.10;;
54125;SDS011;40360;52.992;6.796;2023-04-03T10:12:40;2.97;;;1.00;;
54125;SDS011;40360;52.992;6.796;2023-04-03T10:15:12;2.65;;;0.88;;
54125;SDS011;40360;52.992;6.796;2023-04-03T10:17:53;1.77;;;0.80;;
54125;SDS011;40360;52.992;6.796;2023-04-03T10:20:29;3.45;;;0.80;;
54125;SDS011;40360;52.992;6.796;2023-04-03T10:25:37;3.13;;;0.90;;
54125;SDS011;40360;52.992;6.796;2023-04-03T10:33:58;5.15;;;0.98;;
54125;SDS011;40360;52.992;6.796;2023-04-03T10:57:38;2.42;;;1.20;;
54125;SDS011;40360;52.992;6.796;2023-04-03T11:00:07;2.50;;;1.10;;
54125;SDS011;40360;52.992;6.796;2023-04-03T11:02:54;1.98;;;0.82;;
54125;SDS011;40360;52.992;6.796;2023-04-03T11:05:28;3.85;;;1.05;;
54125;SDS011;40360;52.992;6.796;2023-04-03T11:08:03;3.17;;;1.30;;
54125;SDS011;40360;52.992;6.796;2023-04-03T11:10:41;2.58;;;1.40;;
54125;SDS011;40360;52.992;6.796;2023-04-03T11:13:22;1.60;;;0.95;;
54125;SDS011;40360;52.992;6.796;2023-04-03T11:16:21;3.42;;;1.27;;
54125;SDS011;40360;52.992;6.796;2023-04-03T11:19:05;2.97;;;1.10;;
54125;SDS011;40360;52.992;6.796;2023-04-03T11:21:42;4.32;;;1.17;;
54125;SDS011;40360;52.992;6.796;2023-04-03T11:24:19;2.45;;;1.20;;
54125;SDS011;40360;52.992;6.796;2023-04-03T11:26:49;3.73;;;1.20;;
54125;SDS011;40360;52.992;6.796;2023-04-03T11:29:20;2.08;;;1.00;;
54125;SDS011;40360;52.992;6.796;2023-04-03T11:37:16;2.08;;;0.98;;
54125;SDS011;40360;52.992;6.796;2023-04-03T11:40:07;3.72;;;1.70;;
54125;SDS011;40360;52.992;6.796;2023-04-03T12:03:32;2.58;;;1.13;;
54125;SDS011;40360;52.992;6.796;2023-04-03T12:08:47;4.05;;;1.17;;
54125;SDS011;40360;52.992;6.796;2023-04-03T12:11:25;3.85;;;1.33;;
54125;SDS011;40360;52.992;6.796;2023-04-03T12:34:31;2.13;;;1.30;;
54125;SDS011;40360;52.992;6.796;2023-04-03T12:40:27;2.80;;;1.40;;
54125;SDS011;40360;52.992;6.796;2023-04-03T12:48:27;2.13;;;1.25;;
54125;SDS011;40360;52.992;6.796;2023-04-03T12:50:55;2.03;;;1.20;;
54125;SDS011;40360;52.992;6.796;2023-04-03T12:53:24;2.67;;;1.20;;
54125;SDS011;40360;52.992;6.796;2023-04-03T12:56:41;2.30;;;1.10;;
54125;SDS011;40360;52.992;6.796;2023-04-03T12:58:50;4.80;;;1.52;;
54125;SDS011;40360;52.992;6.796;2023-04-03T13:01:17;1.50;;;1.20;;
54125;SDS011;40360;52.992;6.796;2023-04-03T13:03:49;2.25;;;1.23;;
54125;SDS011;40360;52.992;6.796;2023-04-03T13:06:19;3.63;;;1.70;;
54125;SDS011;40360;52.992;6.796;2023-04-03T13:08:59;2.40;;;1.35;;
54125;SDS011;40360;52.992;6.796;2023-04-03T13:11:39;4.20;;;1.48;;
54125;SDS011;40360;52.992;6.796;2023-04-03T13:14:23;3.22;;;1.35;;
54125;SDS011;40360;52.992;6.796;2023-04-03T13:16:56;2.95;;;1.50;;
54125;SDS011;40360;52.992;6.796;2023-04-03T13:19:26;2.72;;;1.40;;
54125;SDS011;40360;52.992;6.796;2023-04-03T13:22:18;3.22;;;1.60;;
54125;SDS011;40360;52.992;6.796;2023-04-03T13:25:05;4.18;;;1.55;;
54125;SDS011;40360;52.992;6.796;2023-04-03T13:27:34;3.03;;;1.55;;
54125;SDS011;40360;52.992;6.796;2023-04-03T13:30:00;2.97;;;1.85;;
54125;SDS011;40360;52.992;6.796;2023-04-03T13:32:28;2.65;;;1.42;;
54125;SDS011;40360;52.992;6.796;2023-04-03T13:34:55;4.45;;;1.30;;
54125;SDS011;40360;52.992;6.796;2023-04-03T13:37:26;2.45;;;1.25;;
54125;SDS011;40360;52.992;6.796;2023-04-03T13:42:32;3.67;;;1.35;;
54125;SDS011;40360;52.992;6.796;2023-04-03T13:47:43;1.83;;;1.38;;
54125;SDS011;40360;52.992;6.796;2023-04-03T13:52:40;2.97;;;1.55;;
54125;SDS011;40360;52.992;6.796;2023-04-03T13:55:28;3.97;;;1.45;;
54125;SDS011;40360;52.992;6.796;2023-04-03T14:00:50;2.40;;;1.33;;
54125;SDS011;40360;52.992;6.796;2023-04-03T14:06:10;3.63;;;1.50;;
54125;SDS011;40360;52.992;6.796;2023-04-03T14:08:39;3.80;;;1.30;;
54125;SDS011;40360;52.992;6.796;2023-04-03T14:11:06;3.30;;;1.35;;
54125;SDS011;40360;52.992;6.796;2023-04-03T14:13:37;3.28;;;1.42;;
54125;SDS011;40360;52.992;6.796;2023-04-03T14:16:03;3.17;;;1.10;;
54125;SDS011;40360;52.992;6.796;2023-04-03T14:18:29;2.42;;;1.30;;
54125;SDS011;40360;52.992;6.796;2023-04-03T14:20:55;3.15;;;1.20;;
54125;SDS011;40360;52.992;6.796;2023-04-03T14:23:20;2.15;;;1.15;;
54125;SDS011;40360;52.992;6.796;2023-04-03T14:25:46;3.40;;;1.33;;
54125;SDS011;40360;52.992;6.796;2023-04-03T14:28:19;2.78;;;1.15;;
54125;SDS011;40360;52.992;6.796;2023-04-03T14:30:47;2.85;;;1.05;;
54125;SDS011;40360;52.992;6.796;2023-04-03T14:33:16;2.63;;;1.33;;
54125;SDS011;40360;52.992;6.796;2023-04-03T14:35:43;3.45;;;1.50;;
54125;SDS011;40360;52.992;6.796;2023-04-03T14:40:47;2.92;;;1.30;;
54125;SDS011;40360;52.992;6.796;2023-04-03T14:43:13;5.35;;;1.30;;
54125;SDS011;40360;52.992;6.796;2023-04-03T14:45:38;1.83;;;1.00;;
54125;SDS011;40360;52.992;6.796;2023-04-03T14:48:04;2.17;;;1.00;;
54125;SDS011;40360;52.992;6.796;2023-04-03T14:50:34;2.88;;;1.08;;
54125;SDS011;40360;52.992;6.796;2023-04-03T14:53:00;4.03;;;1.40;;
54125;SDS011;40360;52.992;6.796;2023-04-03T14:55:26;2.22;;;1.48;;
54125;SDS011;40360;52.992;6.796;2023-04-03T14:57:52;4.70;;;1.50;;
54125;SDS011;40360;52.992;6.796;2023-04-03T15:00:20;3.00;;;1.08;;
54125;SDS011;40360;52.992;6.796;2023-04-03T15:02:47;1.92;;;1.20;;
54125;SDS011;40360;52.992;6.796;2023-04-03T15:05:13;2.72;;;1.40;;
54125;SDS011;40360;52.992;6.796;2023-04-03T15:07:41;3.35;;;1.42;;
54125;SDS011;40360;52.992;6.796;2023-04-03T15:10:22;2.30;;;1.27;;
54125;SDS011;40360;52.992;6.796;2023-04-03T15:12:52;2.22;;;1.08;;
54125;SDS011;40360;52.992;6.796;2023-04-03T15:15:20;2.22;;;1.00;;
54125;SDS011;40360;52.992;6.796;2023-04-03T15:17:47;2.33;;;1.10;;
54125;SDS011;40360;52.992;6.796;2023-04-03T15:20:19;3.30;;;1.27;;
54125;SDS011;40360;52.992;6.796;2023-04-03T15:22:46;2.80;;;1.08;;
54125;SDS011;40360;52.992;6.796;2023-04-03T15:25:12;1.92;;;0.90;;
54125;SDS011;40360;52.992;6.796;2023-04-03T15:27:38;2.08;;;0.90;;
54125;SDS011;40360;52.992;6.796;2023-04-03T15:30:05;1.95;;;1.08;;
54125;SDS011;40360;52.992;6.796;2023-04-03T15:32:33;2.78;;;1.00;;
54125;SDS011;40360;52.992;6.796;2023-04-03T15:35:00;1.55;;;1.00;;
54125;SDS011;40360;52.992;6.796;2023-04-03T15:37:26;3.13;;;1.10;;
54125;SDS011;40360;52.992;6.796;2023-04-03T15:39:52;2.78;;;1.02;;
54125;SDS011;40360;52.992;6.796;2023-04-03T15:42:17;3.30;;;1.00;;
54125;SDS011;40360;52.992;6.796;2023-04-03T15:44:43;3.60;;;1.50;;
54125;SDS011;40360;52.992;6.796;2023-04-03T15:47:08;2.80;;;1.23;;
54125;SDS011;40360;52.992;6.796;2023-04-03T15:49:34;2.50;;;1.00;;
54125;SDS011;40360;52.992;6.796;2023-04-03T15:52:01;5.47;;;2.38;;
54125;SDS011;40360;52.992;6.796;2023-04-03T15:54:27;2.30;;;1.33;;
54125;SDS011;40360;52.992;6.796;2023-04-03T15:56:54;3.60;;;1.63;;
54125;SDS011;40360;52.992;6.796;2023-04-03T15:59:20;2.50;;;1.42;;
54125;SDS011;40360;52.992;6.796;2023-04-03T16:01:46;2.78;;;1.30;;
54125;SDS011;40360;52.992;6.796;2023-04-03T16:04:13;3.15;;;1.35;;
54125;SDS011;40360;52.992;6.796;2023-04-03T16:06:40;3.92;;;1.70;;
54125;SDS011;40360;52.992;6.796;2023-04-03T16:09:06;2.13;;;1.40;;
54125;SDS011;40360;52.992;6.796;2023-04-03T16:11:32;3.30;;;1.33;;
54125;SDS011;40360;52.992;6.796;2023-04-03T16:14:00;2.63;;;1.42;;
54125;SDS011;40360;52.992;6.796;2023-04-03T16:16:26;2.55;;;1.20;;
54125;SDS011;40360;52.992;6.796;2023-04-03T16:18:53;2.83;;;1.38;;
54125;SDS011;40360;52.992;6.796;2023-04-03T16:21:20;2.53;;;1.20;;
54125;SDS011;40360;52.992;6.796;2023-04-03T16:23:46;3.33;;;1.05;;
54125;SDS011;40360;52.992;6.796;2023-04-03T16:26:12;2.70;;;1.00;;
54125;SDS011;40360;52.992;6.796;2023-04-03T16:28:38;4.18;;;1.17;;
54125;SDS011;40360;52.992;6.796;2023-04-03T16:31:04;2.92;;;1.20;;
54125;SDS011;40360;52.992;6.796;2023-04-03T16:33:30;3.00;;;1.30;;
54125;SDS011;40360;52.992;6.796;2023-04-03T16:35:56;3.45;;;1.48;;
54125;SDS011;40360;52.992;6.796;2023-04-03T16:38:22;3.50;;;1.33;;
54125;SDS011;40360;52.992;6.796;2023-04-03T16:40:48;1.40;;;1.05;;
54125;SDS011;40360;52.992;6.796;2023-04-03T16:43:14;2.60;;;1.40;;
54125;SDS011;40360;52.992;6.796;2023-04-03T16:45:41;3.00;;;1.63;;
54125;SDS011;40360;52.992;6.796;2023-04-03T16:48:07;2.55;;;1.23;;
54125;SDS011;40360;52.992;6.796;2023-04-03T16:50:33;4.85;;;1.58;;
54125;SDS011;40360;52.992;6.796;2023-04-03T16:52:58;2.42;;;1.10;;
54125;SDS011;40360;52.992;6.796;2023-04-03T16:55:24;2.25;;;1.05;;
54125;SDS011;40360;52.992;6.796;2023-04-03T16:57:50;4.53;;;1.40;;
54125;SDS011;40360;52.992;6.796;2023-04-03T17:00:16;2.97;;;1.27;;
54125;SDS011;40360;52.992;6.796;2023-04-03T17:02:41;1.92;;;1.23;;
54125;SDS011;40360;52.992;6.796;2023-04-03T17:05:07;1.98;;;1.17;;
54125;SDS011;40360;52.992;6.796;2023-04-03T17:07:33;4.65;;;1.30;;
54125;SDS011;40360;52.992;6.796;2023-04-03T17:09:59;3.25;;;1.45;;
54125;SDS011;40360;52.992;6.796;2023-04-03T17:12:25;3.42;;;1.50;;
54125;SDS011;40360;52.992;6.796;2023-04-03T17:14:50;3.63;;;1.30;;
54125;SDS011;40360;52.992;6.796;2023-04-03T17:17:21;2.72;;;1.27;;
54125;SDS011;40360;52.992;6.796;2023-04-03T17:19:48;4.32;;;2.05;;
54125;SDS011;40360;52.992;6.796;2023-04-03T17:22:14;2.45;;;1.30;;
54125;SDS011;40360;52.992;6.796;2023-04-03T17:24:42;2.92;;;1.42;;